Time,TemperatureF,DewpointF,PressureIn,WindDirection,WindDirectionDegrees,WindSpeedMPH,WindSpeedGustMPH,Humidity,HourlyPrecipIn,Conditions,Clouds,dailyrainin,SolarRadiationWatts/m^2,SoftwareType,DateUTC
2013-05-13 00:00:00,34.5,26.1,30.12,NW,321,0.0,0.0,71,0.00,,,0.01,0.0,meteohub,2013-05-13 04:00:00,
2013-05-13 00:01:00,34.5,26.1,30.12,NW,321,0.0,0.0,71,0.00,,,0.01,0.0,meteohub,2013-05-13 04:01:00,
2013-05-13 00:06:00,34.3,26.2,30.12,NW,321,0.0,0.0,72,0.00,,,0.01,0.0,meteohub,2013-05-13 04:06:00,
2013-05-13 00:11:00,34.3,26.2,30.12,NW,321,0.0,0.0,72,0.00,,,0.00,0.0,meteohub,2013-05-13 04:11:00,
2013-05-13 00:16:00,34.3,26.6,30.12,NW,321,0.0,0.0,73,0.00,,,0.00,0.0,meteohub,2013-05-13 04:16:00,
2013-05-13 00:21:00,34.3,26.6,30.12,NW,321,0.0,0.0,73,0.00,,,0.00,0.0,meteohub,2013-05-13 04:21:00,
2013-05-13 00:26:00,34.3,26.6,30.12,NW,321,0.0,0.0,73,0.00,,,0.00,0.0,meteohub,2013-05-13 04:26:00,
2013-05-13 00:31:00,34.2,26.4,30.12,NW,321,0.0,0.0,73,0.00,,,0.00,0.0,meteohub,2013-05-13 04:31:00,
2013-05-13 00:36:00,34.2,26.4,30.12,NW,321,0.0,0.0,73,0.00,,,0.00,0.0,meteohub,2013-05-13 04:36:00,
2013-05-13 00:42:00,34.0,26.6,30.12,NW,321,0.0,0.0,74,0.00,,,0.00,0.0,meteohub,2013-05-13 04:42:00,
2013-05-13 00:47:00,34.0,26.6,30.12,NW,321,0.0,0.0,74,0.00,,,0.00,0.0,meteohub,2013-05-13 04:47:00,
2013-05-13 00:52:00,33.6,26.6,30.12,NW,321,0.0,0.0,75,0.00,,,0.00,0.0,meteohub,2013-05-13 04:52:00,
2013-05-13 00:57:00,33.4,26.4,30.12,NW,321,0.0,0.0,75,0.00,,,0.00,0.0,meteohub,2013-05-13 04:57:00,
2013-05-13 01:02:00,33.4,26.8,30.12,NW,321,0.0,0.0,76,0.00,,,0.00,0.0,meteohub,2013-05-13 05:02:00,
2013-05-13 01:07:00,33.3,26.6,30.12,NW,321,0.0,0.0,76,0.00,,,0.00,0.0,meteohub,2013-05-13 05:07:00,
2013-05-13 01:12:00,33.3,26.6,30.12,NW,321,0.0,0.0,76,0.00,,,0.00,0.0,meteohub,2013-05-13 05:12:00,
2013-05-13 01:17:00,33.1,26.4,30.12,NW,321,0.0,0.0,76,0.00,,,0.00,0.0,meteohub,2013-05-13 05:17:00,
2013-05-13 01:22:00,32.7,26.1,30.12,NW,321,0.0,0.0,76,0.00,,,0.00,0.0,meteohub,2013-05-13 05:22:00,
2013-05-13 01:27:00,32.5,25.9,30.12,NW,321,0.0,0.0,76,0.00,,,0.00,0.0,meteohub,2013-05-13 05:27:00,
2013-05-13 01:32:00,32.5,25.9,30.12,NW,321,0.0,0.0,76,0.00,,,0.00,0.0,meteohub,2013-05-13 05:32:00,
2013-05-13 01:37:00,32.2,25.2,30.12,NW,321,0.0,0.0,75,0.00,,,0.00,0.0,meteohub,2013-05-13 05:37:00,
2013-05-13 01:42:00,32.0,25.3,30.12,NW,321,0.0,0.0,76,0.00,,,0.00,0.0,meteohub,2013-05-13 05:42:00,
2013-05-13 01:47:00,31.6,25.3,30.12,NW,321,0.0,0.0,77,0.00,,,0.00,0.0,meteohub,2013-05-13 05:47:00,
2013-05-13 01:52:00,31.5,25.3,30.12,NW,321,0.0,0.0,78,0.00,,,0.00,0.0,meteohub,2013-05-13 05:52:00,
2013-05-13 01:57:00,31.1,25.3,30.12,NW,321,0.0,0.0,79,0.00,,,0.00,0.0,meteohub,2013-05-13 05:57:00,
2013-05-13 02:02:00,30.9,25.5,30.12,NW,321,0.0,0.0,80,0.00,,,0.00,0.0,meteohub,2013-05-13 06:02:00,
2013-05-13 02:07:00,30.7,25.5,30.12,NW,321,0.0,0.0,81,0.00,,,0.00,0.0,meteohub,2013-05-13 06:07:00,
2013-05-13 02:12:00,30.6,25.7,30.12,NW,321,0.0,0.0,82,0.00,,,0.00,0.0,meteohub,2013-05-13 06:12:00,
2013-05-13 02:17:00,30.6,25.7,30.12,NW,321,0.0,0.0,82,0.00,,,0.00,0.0,meteohub,2013-05-13 06:17:00,
2013-05-13 02:22:00,30.4,25.5,30.12,NW,321,0.0,0.0,82,0.00,,,0.00,0.0,meteohub,2013-05-13 06:22:00,
2013-05-13 02:27:00,30.0,25.2,30.12,NW,321,0.0,0.0,82,0.00,,,0.00,0.0,meteohub,2013-05-13 06:27:00,
2013-05-13 02:32:00,29.8,25.0,30.12,NW,321,0.0,0.0,82,0.00,,,0.00,0.0,meteohub,2013-05-13 06:32:00,
2013-05-13 02:37:00,29.8,25.0,30.12,NW,321,0.0,0.0,82,0.00,,,0.00,0.0,meteohub,2013-05-13 06:37:00,
2013-05-13 02:42:00,29.7,24.8,30.12,NW,321,0.0,0.0,82,0.00,,,0.00,0.0,meteohub,2013-05-13 06:42:00,
2013-05-13 02:47:00,29.3,24.4,30.12,NW,321,0.0,0.0,82,0.00,,,0.00,0.0,meteohub,2013-05-13 06:47:00,
2013-05-13 02:52:00,29.1,24.3,30.12,NW,321,0.0,0.0,82,0.00,,,0.00,0.0,meteohub,2013-05-13 06:52:00,
2013-05-13 02:57:00,28.9,24.1,30.12,NW,321,0.0,0.0,82,0.00,,,0.00,0.0,meteohub,2013-05-13 06:57:00,
2013-05-13 03:02:00,28.8,24.3,30.12,NW,321,0.0,0.0,83,0.00,,,0.00,0.0,meteohub,2013-05-13 07:02:00,
2013-05-13 03:07:00,28.8,24.8,30.12,NW,321,0.0,0.0,85,0.00,,,0.00,0.0,meteohub,2013-05-13 07:07:00,
2013-05-13 03:12:00,28.8,24.8,30.12,NW,321,0.0,0.0,85,0.00,,,0.00,0.0,meteohub,2013-05-13 07:12:00,
2013-05-13 03:17:00,28.6,24.6,30.12,NW,321,0.0,0.0,85,0.00,,,0.00,0.0,meteohub,2013-05-13 07:17:00,
2013-05-13 03:22:00,28.6,24.6,30.12,NW,321,0.0,0.0,85,0.00,,,0.00,0.0,meteohub,2013-05-13 07:22:00,
2013-05-13 03:27:00,28.4,24.4,30.12,NW,321,0.0,0.0,85,0.00,,,0.00,0.0,meteohub,2013-05-13 07:27:00,
2013-05-13 03:32:00,28.2,24.3,30.12,NW,321,0.0,0.0,85,0.00,,,0.00,0.0,meteohub,2013-05-13 07:32:00,
2013-05-13 03:37:00,28.0,24.1,30.12,NW,321,0.0,0.0,85,0.00,,,0.00,0.0,meteohub,2013-05-13 07:37:00,
2013-05-13 03:42:00,27.9,23.9,30.12,NW,321,0.0,0.0,85,0.00,,,0.00,0.0,meteohub,2013-05-13 07:42:00,
2013-05-13 03:47:00,27.9,23.9,30.12,NW,321,0.0,0.0,85,0.00,,,0.00,0.0,meteohub,2013-05-13 07:47:00,
2013-05-13 03:52:00,27.7,23.7,30.13,NW,321,0.0,0.0,85,0.00,,,0.00,0.0,meteohub,2013-05-13 07:52:00,
2013-05-13 03:57:00,27.5,23.5,30.12,NW,321,0.0,0.0,85,0.00,,,0.00,0.0,meteohub,2013-05-13 07:57:00,
2013-05-13 04:02:00,27.3,23.7,30.13,NW,321,0.0,0.0,86,0.00,,,0.00,0.0,meteohub,2013-05-13 08:02:00,
2013-05-13 04:07:00,27.3,23.7,30.13,NW,321,0.0,0.0,86,0.00,,,0.00,0.0,meteohub,2013-05-13 08:07:00,
2013-05-13 04:12:00,27.1,23.5,30.12,NW,321,0.0,0.0,86,0.00,,,0.00,0.0,meteohub,2013-05-13 08:12:00,
2013-05-13 04:17:00,27.1,23.7,30.12,NW,321,0.0,0.0,87,0.00,,,0.00,0.0,meteohub,2013-05-13 08:17:00,
2013-05-13 04:23:00,27.1,23.7,30.13,NW,321,0.0,0.0,87,0.00,,,0.00,0.0,meteohub,2013-05-13 08:23:00,
2013-05-13 04:28:00,27.3,23.9,30.12,NW,321,0.0,0.0,87,0.00,,,0.00,0.0,meteohub,2013-05-13 08:28:00,
2013-05-13 04:33:00,27.3,24.3,30.12,NW,321,0.0,0.0,88,0.00,,,0.00,0.0,meteohub,2013-05-13 08:33:00,
2013-05-13 04:38:00,27.1,24.1,30.12,NW,321,0.0,0.0,88,0.00,,,0.00,0.0,meteohub,2013-05-13 08:38:00,
2013-05-13 04:43:00,27.1,24.1,30.12,NW,321,0.0,0.0,88,0.00,,,0.00,0.0,meteohub,2013-05-13 08:43:00,
2013-05-13 04:48:00,27.1,24.1,30.12,NW,321,0.0,0.0,88,0.00,,,0.00,0.0,meteohub,2013-05-13 08:48:00,
2013-05-13 04:53:00,27.0,23.9,30.12,NW,321,0.0,0.0,88,0.00,,,0.00,0.0,meteohub,2013-05-13 08:53:00,
2013-05-13 04:58:00,27.0,23.9,30.12,NW,321,0.0,0.0,88,0.00,,,0.00,0.0,meteohub,2013-05-13 08:58:00,
2013-05-13 05:03:00,26.8,23.7,30.12,NW,321,0.0,0.0,88,0.00,,,0.00,0.0,meteohub,2013-05-13 09:03:00,
2013-05-13 05:08:00,26.6,23.5,30.12,NW,321,0.0,0.0,88,0.00,,,0.00,0.0,meteohub,2013-05-13 09:08:00,
2013-05-13 05:13:00,26.4,23.4,30.12,NW,321,0.0,0.0,88,0.00,,,0.00,0.0,meteohub,2013-05-13 09:13:00,
2013-05-13 05:18:00,26.2,23.2,30.12,NW,321,0.0,0.0,88,0.00,,,0.00,0.0,meteohub,2013-05-13 09:18:00,
2013-05-13 05:23:00,26.2,23.2,30.12,NW,321,0.0,0.0,88,0.00,,,0.00,0.0,meteohub,2013-05-13 09:23:00,
2013-05-13 05:28:00,26.2,23.2,30.12,NW,321,0.0,0.0,88,0.00,,,0.00,0.0,meteohub,2013-05-13 09:28:00,
2013-05-13 05:33:00,26.1,23.0,30.12,NW,321,0.0,0.0,88,0.00,,,0.00,0.0,meteohub,2013-05-13 09:33:00,
2013-05-13 05:38:00,26.1,23.0,30.12,NW,321,0.0,0.0,88,0.00,,,0.00,0.0,meteohub,2013-05-13 09:38:00,
2013-05-13 05:43:00,26.1,23.2,30.12,NW,321,0.0,0.0,89,0.00,,,0.00,0.0,meteohub,2013-05-13 09:43:00,
2013-05-13 05:48:00,26.2,23.4,30.12,NW,321,0.0,0.0,89,0.00,,,0.00,0.0,meteohub,2013-05-13 09:48:00,
2013-05-13 05:53:00,26.1,23.2,30.12,NW,321,0.0,0.0,89,0.00,,,0.00,0.0,meteohub,2013-05-13 09:53:00,
2013-05-13 05:58:00,26.1,23.2,30.12,NW,321,0.0,0.0,89,0.00,,,0.00,0.0,meteohub,2013-05-13 09:58:00,
2013-05-13 06:03:00,26.1,23.2,30.12,NW,321,0.0,0.0,89,0.00,,,0.00,0.0,meteohub,2013-05-13 10:03:00,
2013-05-13 06:08:00,26.1,23.2,30.12,NW,321,0.0,0.0,89,0.00,,,0.00,0.0,meteohub,2013-05-13 10:08:00,
2013-05-13 06:13:00,26.1,23.2,30.12,NW,321,0.0,0.0,89,0.00,,,0.00,0.0,meteohub,2013-05-13 10:13:00,
2013-05-13 06:18:00,25.9,23.0,30.12,NW,321,0.0,0.0,89,0.00,,,0.00,0.0,meteohub,2013-05-13 10:18:00,
2013-05-13 06:23:00,25.9,23.0,30.12,NW,321,0.0,0.0,89,0.00,,,0.00,0.0,meteohub,2013-05-13 10:23:00,
2013-05-13 06:28:00,25.9,23.0,30.12,NW,321,0.0,0.0,89,0.00,,,0.00,5.0,meteohub,2013-05-13 10:28:00,
2013-05-13 06:33:00,25.9,23.0,30.12,NW,321,0.0,0.0,89,0.00,,,0.00,7.0,meteohub,2013-05-13 10:33:00,
2013-05-13 06:38:00,25.9,23.0,30.12,NW,321,0.0,0.0,89,0.00,,,0.00,9.0,meteohub,2013-05-13 10:38:00,
2013-05-13 06:43:00,25.9,23.0,30.12,NW,321,0.0,0.0,89,0.00,,,0.00,11.0,meteohub,2013-05-13 10:43:00,
2013-05-13 06:48:00,25.9,23.4,30.12,NW,321,0.0,0.0,90,0.00,,,0.00,12.0,meteohub,2013-05-13 10:48:00,
2013-05-13 06:53:00,25.9,23.4,30.12,NW,321,0.0,0.0,90,0.00,,,0.00,12.0,meteohub,2013-05-13 10:53:00,
2013-05-13 06:58:00,25.9,23.4,30.12,NW,321,0.0,0.0,90,0.00,,,0.00,14.0,meteohub,2013-05-13 10:58:00,
2013-05-13 07:03:00,25.9,23.4,30.13,NW,321,0.0,0.0,90,0.00,,,0.00,16.0,meteohub,2013-05-13 11:03:00,
2013-05-13 07:09:00,25.9,23.4,30.13,NW,321,0.0,0.0,90,0.00,,,0.00,18.0,meteohub,2013-05-13 11:09:00,
2013-05-13 07:14:00,25.9,23.4,30.13,NW,321,0.0,0.0,90,0.00,,,0.00,19.0,meteohub,2013-05-13 11:14:00,
2013-05-13 07:19:00,25.9,23.4,30.13,NW,321,0.0,0.0,90,0.00,,,0.00,21.0,meteohub,2013-05-13 11:19:00,
2013-05-13 07:24:00,26.1,23.5,30.14,NW,321,0.0,0.0,90,0.00,,,0.00,21.0,meteohub,2013-05-13 11:24:00,
2013-05-13 07:29:00,26.4,24.1,30.14,NW,321,0.0,0.0,91,0.00,,,0.00,23.0,meteohub,2013-05-13 11:29:00,
2013-05-13 07:34:00,27.3,25.0,30.14,NW,321,0.0,0.0,91,0.00,,,0.00,23.0,meteohub,2013-05-13 11:34:00,
2013-05-13 07:39:00,28.8,26.8,30.14,NW,321,0.0,0.0,92,0.00,,,0.00,25.0,meteohub,2013-05-13 11:39:00,
2013-05-13 07:44:00,29.8,27.9,30.14,NW,321,0.0,0.0,92,0.00,,,0.00,26.0,meteohub,2013-05-13 11:44:00,
2013-05-13 07:49:00,30.6,28.2,30.14,NW,321,0.0,0.0,91,0.00,,,0.00,26.0,meteohub,2013-05-13 11:49:00,
2013-05-13 07:54:00,31.5,28.9,30.15,NW,321,0.0,0.0,90,0.00,,,0.00,28.0,meteohub,2013-05-13 11:54:00,
2013-05-13 07:59:00,32.2,28.9,30.15,NW,321,0.0,0.0,88,0.00,,,0.00,28.0,meteohub,2013-05-13 11:59:00,
2013-05-13 08:04:00,32.9,28.9,30.16,NW,321,4.0,0.0,85,0.00,,,0.00,35.0,meteohub,2013-05-13 12:04:00,
2013-05-13 08:09:00,33.8,28.9,30.16,NW,319,0.0,4.0,82,0.00,,,0.00,44.0,meteohub,2013-05-13 12:09:00,
2013-05-13 08:14:00,34.3,28.8,30.17,NW,318,0.0,4.0,80,0.00,,,0.00,46.0,meteohub,2013-05-13 12:14:00,
2013-05-13 08:19:00,35.1,28.6,30.17,NW,319,0.0,4.0,77,0.00,,,0.00,139.0,meteohub,2013-05-13 12:19:00,
2013-05-13 08:24:00,36.0,28.4,30.17,NW,318,0.0,4.0,74,0.00,,,0.00,253.0,meteohub,2013-05-13 12:24:00,
2013-05-13 08:29:00,36.5,28.4,30.17,NW,317,0.0,4.0,72,0.00,,,0.00,295.0,meteohub,2013-05-13 12:29:00,
2013-05-13 08:34:00,37.0,28.2,30.17,NW,317,1.0,4.0,70,0.00,,,0.00,315.0,meteohub,2013-05-13 12:34:00,
2013-05-13 08:39:00,37.6,28.0,30.17,WNW,303,0.0,6.0,68,0.00,,,0.00,336.0,meteohub,2013-05-13 12:39:00,
2013-05-13 08:44:00,37.8,28.2,30.17,NW,316,4.0,6.0,68,0.00,,,0.00,355.0,meteohub,2013-05-13 12:44:00,
2013-05-13 08:49:00,38.3,28.8,30.18,NW,323,0.0,7.0,68,0.00,,,0.00,373.0,meteohub,2013-05-13 12:49:00,
2013-05-13 08:54:00,38.7,28.6,30.18,WNW,302,7.0,7.0,67,0.00,,,0.00,388.0,meteohub,2013-05-13 12:54:00,
2013-05-13 08:59:00,38.8,29.1,30.18,West,269,0.0,8.0,68,0.00,,,0.00,403.0,meteohub,2013-05-13 12:59:00,
2013-05-13 09:04:00,39.0,28.6,30.18,NNW,329,0.0,8.0,66,0.00,,,0.00,422.0,meteohub,2013-05-13 13:04:00,
2013-05-13 09:09:00,39.9,28.8,30.18,NNW,334,5.0,9.0,64,0.00,,,0.00,439.0,meteohub,2013-05-13 13:09:00,
2013-05-13 09:14:00,39.7,27.9,30.18,NW,323,4.0,9.0,62,0.00,,,0.00,455.0,meteohub,2013-05-13 13:14:00,
2013-05-13 09:19:00,39.7,27.3,30.18,NW,312,0.0,11.0,61,0.00,,,0.00,471.0,meteohub,2013-05-13 13:19:00,
2013-05-13 09:24:00,40.5,28.9,30.18,NW,318,0.0,11.0,63,0.00,,,0.00,487.0,meteohub,2013-05-13 13:24:00,
2013-05-13 09:29:00,41.2,28.8,30.18,NNW,329,4.0,11.0,61,0.00,,,0.00,499.0,meteohub,2013-05-13 13:29:00,
2013-05-13 09:34:00,40.8,27.7,30.18,West,265,0.0,11.0,59,0.00,,,0.00,519.0,meteohub,2013-05-13 13:34:00,
2013-05-13 09:39:00,41.4,28.9,30.19,WNW,294,6.0,11.0,61,0.00,,,0.00,526.0,meteohub,2013-05-13 13:39:00,
2013-05-13 09:44:00,41.4,28.0,30.18,West,275,0.0,11.0,59,0.00,,,0.00,543.0,meteohub,2013-05-13 13:44:00,
2013-05-13 09:50:00,42.3,25.9,30.18,NW,315,8.0,11.0,52,0.00,,,0.00,563.0,meteohub,2013-05-13 13:50:00,
2013-05-13 09:55:00,42.1,25.7,30.18,WSW,257,5.0,11.0,52,0.00,,,0.00,575.0,meteohub,2013-05-13 13:55:00,
2013-05-13 10:00:00,42.4,27.0,30.18,NW,304,6.0,18.0,54,0.00,,,0.00,592.0,meteohub,2013-05-13 14:00:00,
2013-05-13 10:05:00,43.5,27.5,30.18,NW,319,0.0,18.0,53,0.00,,,0.00,605.0,meteohub,2013-05-13 14:05:00,
2013-05-13 10:10:00,44.2,27.3,30.18,NW,321,0.0,18.0,51,0.00,,,0.00,622.0,meteohub,2013-05-13 14:10:00,
2013-05-13 10:15:00,44.1,27.1,30.18,NNW,340,0.0,18.0,51,0.00,,,0.00,633.0,meteohub,2013-05-13 14:15:00,
2013-05-13 10:20:00,43.5,25.2,30.18,NW,321,2.0,12.0,48,0.00,,,0.00,649.0,meteohub,2013-05-13 14:20:00,
2013-05-13 10:25:00,43.9,25.5,30.18,West,275,7.0,12.0,48,0.00,,,0.00,661.0,meteohub,2013-05-13 14:25:00,
2013-05-13 10:30:00,43.9,25.0,30.19,NW,313,0.0,14.0,47,0.00,,,0.00,675.0,meteohub,2013-05-13 14:30:00,
2013-05-13 10:35:00,43.7,25.3,30.18,WNW,297,0.0,14.0,48,0.00,,,0.00,686.0,meteohub,2013-05-13 14:35:00,
2013-05-13 10:40:00,45.0,27.0,30.18,WNW,303,0.0,14.0,49,0.00,,,0.00,700.0,meteohub,2013-05-13 14:40:00,
2013-05-13 10:45:00,45.0,25.3,30.19,WNW,284,5.0,11.0,46,0.00,,,0.00,717.0,meteohub,2013-05-13 14:45:00,
2013-05-13 10:50:00,45.5,25.9,30.18,NW,316,0.0,11.0,46,0.00,,,0.00,722.0,meteohub,2013-05-13 14:50:00,
2013-05-13 10:55:00,45.9,27.3,30.18,WNW,294,0.0,11.0,48,0.00,,,0.00,738.0,meteohub,2013-05-13 14:55:00,
2013-05-13 11:00:00,45.3,27.3,30.18,NW,309,0.0,12.0,49,0.00,,,0.00,745.0,meteohub,2013-05-13 15:00:00,
2013-05-13 11:05:00,46.9,28.2,30.18,NW,308,0.0,12.0,48,0.00,,,0.00,756.0,meteohub,2013-05-13 15:05:00,
2013-05-13 11:10:00,46.9,27.3,30.18,NW,309,5.0,7.0,46,0.00,,,0.00,766.0,meteohub,2013-05-13 15:10:00,
2013-05-13 11:15:00,45.7,25.5,30.18,WSW,257,0.0,7.0,45,0.00,,,0.00,779.0,meteohub,2013-05-13 15:15:00,
2013-05-13 11:20:00,45.9,24.6,30.18,West,268,0.0,10.0,43,0.00,,,0.00,786.0,meteohub,2013-05-13 15:20:00,
2013-05-13 11:25:00,46.8,28.0,30.18,West,275,0.0,10.0,48,0.00,,,0.00,793.0,meteohub,2013-05-13 15:25:00,
2013-05-13 11:30:00,46.6,24.8,30.18,NNW,329,6.0,13.0,42,0.00,,,0.00,803.0,meteohub,2013-05-13 15:30:00,
2013-05-13 11:35:00,46.0,24.8,30.19,WNW,302,8.0,13.0,43,0.00,,,0.00,817.0,meteohub,2013-05-13 15:35:00,
2013-05-13 11:40:00,46.6,25.9,30.18,WNW,288,4.0,13.0,44,0.00,,,0.00,824.0,meteohub,2013-05-13 15:40:00,
2013-05-13 11:45:00,47.5,26.6,30.18,WNW,300,9.0,13.0,44,0.00,,,0.00,833.0,meteohub,2013-05-13 15:45:00,
2013-05-13 11:50:00,47.5,27.7,30.19,SW,227,0.0,12.0,46,0.00,,,0.00,853.0,meteohub,2013-05-13 15:50:00,
2013-05-13 11:55:00,47.7,26.2,30.18,WNW,298,0.0,12.0,43,0.00,,,0.00,872.0,meteohub,2013-05-13 15:55:00,
2013-05-13 12:00:00,47.7,28.4,30.19,WNW,292,4.0,12.0,47,0.00,,,0.00,875.0,meteohub,2013-05-13 16:00:00,
2013-05-13 12:05:00,48.7,27.3,30.18,NNW,333,0.0,10.0,43,0.00,,,0.00,875.0,meteohub,2013-05-13 16:05:00,
2013-05-13 12:10:00,48.7,27.9,30.19,NW,306,0.0,10.0,44,0.00,,,0.00,875.0,meteohub,2013-05-13 16:10:00,
2013-05-13 12:15:00,50.2,30.7,30.18,WNW,286,6.0,14.0,47,0.00,,,0.00,877.0,meteohub,2013-05-13 16:15:00,
2013-05-13 12:20:00,49.6,27.5,30.18,West,269,0.0,11.0,42,0.00,,,0.00,891.0,meteohub,2013-05-13 16:20:00,
2013-05-13 12:25:00,48.9,25.7,30.18,WNW,296,7.0,9.0,40,0.00,,,0.00,893.0,meteohub,2013-05-13 16:25:00,
2013-05-13 12:30:00,48.4,25.2,30.18,WSW,254,4.0,9.0,40,0.00,,,0.00,893.0,meteohub,2013-05-13 16:30:00,
2013-05-13 12:35:00,47.3,24.8,30.18,WSW,249,0.0,13.0,41,0.00,,,0.00,898.0,meteohub,2013-05-13 16:35:00,
2013-05-13 12:40:00,48.4,28.0,30.18,West,273,7.0,13.0,45,0.00,,,0.00,907.0,meteohub,2013-05-13 16:40:00,
2013-05-13 12:45:00,48.4,24.6,30.18,West,281,4.0,11.0,39,0.00,,,0.00,911.0,meteohub,2013-05-13 16:45:00,
2013-05-13 12:50:00,48.6,24.8,30.18,WNW,283,2.0,14.0,39,0.00,,,0.00,916.0,meteohub,2013-05-13 16:50:00,
2013-05-13 12:55:00,49.6,25.0,30.18,NW,321,0.0,14.0,38,0.00,,,0.00,919.0,meteohub,2013-05-13 16:55:00,
2013-05-13 13:00:00,49.6,26.2,30.18,West,265,3.0,11.0,40,0.00,,,0.00,925.0,meteohub,2013-05-13 17:00:00,
2013-05-13 13:05:00,50.4,27.5,30.17,WNW,298,0.0,11.0,41,0.00,,,0.00,925.0,meteohub,2013-05-13 17:05:00,
2013-05-13 13:11:00,50.0,26.6,30.18,WNW,284,0.0,11.0,40,0.00,,,0.00,928.0,meteohub,2013-05-13 17:11:00,
2013-05-13 13:16:00,49.6,25.0,30.17,WNW,284,7.0,11.0,38,0.00,,,0.00,930.0,meteohub,2013-05-13 17:16:00,
2013-05-13 13:21:00,49.8,25.2,30.17,NW,326,0.0,14.0,38,0.00,,,0.00,930.0,meteohub,2013-05-13 17:21:00,
2013-05-13 13:26:00,49.6,27.0,30.17,WSW,242,0.0,14.0,41,0.00,,,0.00,935.0,meteohub,2013-05-13 17:26:00,
2013-05-13 13:31:00,50.7,27.3,30.17,NNW,335,8.0,14.0,40,0.00,,,0.00,935.0,meteohub,2013-05-13 17:31:00,
2013-05-13 13:36:00,49.8,24.6,30.17,West,263,4.0,13.0,37,0.00,,,0.00,944.0,meteohub,2013-05-13 17:36:00,
2013-05-13 13:41:00,49.6,28.0,30.17,WNW,295,0.0,13.0,43,0.00,,,0.00,932.0,meteohub,2013-05-13 17:41:00,
2013-05-13 13:46:00,50.0,25.3,30.17,WNW,298,0.0,13.0,38,0.00,,,0.00,976.0,meteohub,2013-05-13 17:46:00,
2013-05-13 13:51:00,50.5,28.2,30.17,West,278,1.0,11.0,42,0.00,,,0.00,940.0,meteohub,2013-05-13 17:51:00,
2013-05-13 13:56:00,51.4,29.1,30.16,West,280,0.0,11.0,42,0.00,,,0.00,872.0,meteohub,2013-05-13 17:56:00,
2013-05-13 14:01:00,51.8,26.4,30.17,NNW,342,6.0,11.0,37,0.00,,,0.00,942.0,meteohub,2013-05-13 18:01:00,
2013-05-13 14:06:00,52.0,30.2,30.16,NNW,339,0.0,11.0,43,0.00,,,0.00,935.0,meteohub,2013-05-13 18:06:00,
2013-05-13 14:11:00,51.3,25.2,30.16,West,279,5.0,12.0,36,0.00,,,0.00,933.0,meteohub,2013-05-13 18:11:00,
2013-05-13 14:16:00,51.3,27.7,30.16,West,271,5.0,12.0,40,0.00,,,0.00,932.0,meteohub,2013-05-13 18:16:00,
2013-05-13 14:21:00,50.9,26.2,30.16,WSW,257,7.0,12.0,38,0.00,,,0.00,923.0,meteohub,2013-05-13 18:21:00,
2013-05-13 14:26:00,51.3,26.6,30.16,WSW,239,2.0,12.0,38,0.00,,,0.00,921.0,meteohub,2013-05-13 18:26:00,
2013-05-13 14:31:00,51.6,28.8,30.16,NW,311,0.0,12.0,41,0.00,,,0.00,919.0,meteohub,2013-05-13 18:31:00,
2013-05-13 14:36:00,52.2,27.3,30.16,WNW,300,0.0,12.0,38,0.00,,,0.00,914.0,meteohub,2013-05-13 18:36:00,
2013-05-13 14:41:00,52.2,27.3,30.15,NNW,328,4.0,9.0,38,0.00,,,0.00,912.0,meteohub,2013-05-13 18:41:00,
2013-05-13 14:46:00,51.6,26.2,30.15,WSW,256,5.0,9.0,37,0.00,,,0.00,904.0,meteohub,2013-05-13 18:46:00,
2013-05-13 14:51:00,51.4,28.6,30.15,West,277,2.0,11.0,41,0.00,,,0.00,905.0,meteohub,2013-05-13 18:51:00,
2013-05-13 14:56:00,52.3,29.8,30.15,West,264,5.0,11.0,42,0.00,,,0.00,891.0,meteohub,2013-05-13 18:56:00,
2013-05-13 15:01:00,52.3,28.8,30.15,NW,304,0.0,12.0,40,0.00,,,0.00,889.0,meteohub,2013-05-13 19:01:00,
2013-05-13 15:06:00,52.3,28.0,30.15,West,259,4.0,12.0,39,0.00,,,0.00,884.0,meteohub,2013-05-13 19:06:00,
2013-05-13 15:11:00,52.0,26.6,30.14,WNW,283,0.0,12.0,37,0.00,,,0.00,874.0,meteohub,2013-05-13 19:11:00,
2013-05-13 15:16:00,53.6,29.3,30.14,West,277,0.0,10.0,39,0.00,,,0.00,872.0,meteohub,2013-05-13 19:16:00,
2013-05-13 15:21:00,54.1,30.9,30.15,WNW,283,0.0,10.0,41,0.00,,,0.00,868.0,meteohub,2013-05-13 19:21:00,
2013-05-13 15:26:00,53.1,26.8,30.14,West,263,1.0,10.0,36,0.00,,,0.00,858.0,meteohub,2013-05-13 19:26:00,
2013-05-13 15:31:00,52.3,27.5,30.14,West,259,3.0,8.0,38,0.00,,,0.00,849.0,meteohub,2013-05-13 19:31:00,
2013-05-13 15:36:00,52.3,27.5,30.13,WSW,254,0.0,8.0,38,0.00,,,0.00,671.0,meteohub,2013-05-13 19:36:00,
2013-05-13 15:41:00,52.0,27.1,30.13,West,259,3.0,7.0,38,0.00,,,0.00,828.0,meteohub,2013-05-13 19:41:00,
2013-05-13 15:46:00,53.2,27.7,30.13,West,263,6.0,7.0,37,0.00,,,0.00,831.0,meteohub,2013-05-13 19:46:00,
2013-05-13 15:51:00,52.7,28.4,30.13,WSW,258,2.0,12.0,39,0.00,,,0.00,816.0,meteohub,2013-05-13 19:51:00,
2013-05-13 15:56:00,52.5,27.7,30.13,WSW,257,0.0,12.0,38,0.00,,,0.00,805.0,meteohub,2013-05-13 19:56:00,
2013-05-13 16:01:00,53.2,29.5,30.13,WNW,302,0.0,9.0,40,0.00,,,0.00,795.0,meteohub,2013-05-13 20:01:00,
2013-05-13 16:06:00,52.7,27.9,30.12,West,271,6.0,9.0,38,0.00,,,0.00,780.0,meteohub,2013-05-13 20:06:00,
2013-05-13 16:11:00,53.2,28.9,30.13,NW,325,12.0,12.0,39,0.00,,,0.00,773.0,meteohub,2013-05-13 20:11:00,
2013-05-13 16:16:00,52.5,27.7,30.13,West,277,4.0,13.0,38,0.00,,,0.00,763.0,meteohub,2013-05-13 20:16:00,
2013-05-13 16:21:00,53.2,29.5,30.12,West,269,3.0,13.0,40,0.00,,,0.00,749.0,meteohub,2013-05-13 20:21:00,
2013-05-13 16:26:00,52.9,27.3,30.12,NNW,331,8.0,13.0,37,0.00,,,0.00,742.0,meteohub,2013-05-13 20:26:00,
2013-05-13 16:31:00,53.2,27.7,30.12,WSW,254,0.0,11.0,37,0.00,,,0.00,733.0,meteohub,2013-05-13 20:31:00,
2013-05-13 16:36:00,52.9,30.4,30.11,West,261,3.0,11.0,42,0.00,,,0.00,719.0,meteohub,2013-05-13 20:36:00,
2013-05-13 16:41:00,52.9,29.3,30.11,West,261,4.0,11.0,40,0.00,,,0.00,717.0,meteohub,2013-05-13 20:41:00,
2013-05-13 16:46:00,53.2,31.3,30.11,WSW,244,3.0,11.0,43,0.00,,,0.00,701.0,meteohub,2013-05-13 20:46:00,
2013-05-13 16:51:00,53.2,28.2,30.11,WNW,288,0.0,14.0,38,0.00,,,0.00,680.0,meteohub,2013-05-13 20:51:00,
2013-05-13 16:56:00,53.4,29.7,30.11,West,266,4.0,14.0,40,0.00,,,0.00,673.0,meteohub,2013-05-13 20:56:00,
2013-05-13 17:01:00,53.1,27.5,30.11,WSW,256,6.0,14.0,37,0.00,,,0.00,659.0,meteohub,2013-05-13 21:01:00,
2013-05-13 17:06:00,52.9,26.6,30.11,West,277,4.0,14.0,36,0.00,,,0.00,656.0,meteohub,2013-05-13 21:06:00,
2013-05-13 17:11:00,52.3,27.5,30.11,WSW,254,4.0,11.0,38,0.00,,,0.00,640.0,meteohub,2013-05-13 21:11:00,
2013-05-13 17:16:00,52.9,26.6,30.12,WSW,254,4.0,11.0,36,0.00,,,0.00,575.0,meteohub,2013-05-13 21:16:00,
2013-05-13 17:21:00,52.2,27.3,30.11,WNW,292,9.0,13.0,38,0.00,,,0.00,443.0,meteohub,2013-05-13 21:21:00,
2013-05-13 17:26:00,52.3,28.8,30.11,West,265,3.0,13.0,40,0.00,,,0.00,631.0,meteohub,2013-05-13 21:26:00,
2013-05-13 17:31:00,52.9,28.6,30.11,WSW,254,4.0,13.0,39,0.00,,,0.00,650.0,meteohub,2013-05-13 21:31:00,
2013-05-13 17:36:00,52.2,27.9,30.11,WSW,250,2.0,13.0,39,0.00,,,0.00,587.0,meteohub,2013-05-13 21:36:00,
2013-05-13 17:41:00,52.7,27.9,30.10,WSW,246,4.0,11.0,38,0.00,,,0.00,557.0,meteohub,2013-05-13 21:41:00,
2013-05-13 17:46:00,52.5,28.2,30.11,WSW,249,5.0,11.0,39,0.00,,,0.00,538.0,meteohub,2013-05-13 21:46:00,
2013-05-13 17:51:00,52.9,29.8,30.11,WNW,290,2.0,14.0,41,0.00,,,0.00,520.0,meteohub,2013-05-13 21:51:00,
2013-05-13 17:56:00,53.1,28.0,30.11,WNW,291,0.0,14.0,38,0.00,,,0.00,504.0,meteohub,2013-05-13 21:56:00,
2013-05-13 18:01:00,52.7,28.4,30.11,West,260,5.0,14.0,39,0.00,,,0.00,492.0,meteohub,2013-05-13 22:01:00,
2013-05-13 18:06:00,52.5,28.2,30.11,West,270,7.0,14.0,39,0.00,,,0.00,473.0,meteohub,2013-05-13 22:06:00,
2013-05-13 18:11:00,52.2,27.3,30.11,West,263,3.0,15.0,38,0.00,,,0.00,459.0,meteohub,2013-05-13 22:11:00,
2013-05-13 18:16:00,52.2,26.6,30.11,West,279,2.0,15.0,37,0.00,,,0.00,445.0,meteohub,2013-05-13 22:16:00,
2013-05-13 18:21:00,51.6,26.8,30.11,West,266,0.0,15.0,38,0.00,,,0.00,429.0,meteohub,2013-05-13 22:21:00,
2013-05-13 18:27:00,52.3,27.5,30.11,West,277,0.0,15.0,38,0.00,,,0.00,413.0,meteohub,2013-05-13 22:27:00,
2013-05-13 18:32:00,52.2,26.6,30.11,WSW,245,0.0,15.0,37,0.00,,,0.00,401.0,meteohub,2013-05-13 22:32:00,
2013-05-13 18:37:00,52.0,24.4,30.11,WSW,241,3.0,10.0,34,0.00,,,0.00,385.0,meteohub,2013-05-13 22:37:00,
2013-05-13 18:42:00,51.6,24.8,30.11,WSW,253,0.0,10.0,35,0.00,,,0.00,367.0,meteohub,2013-05-13 22:42:00,
2013-05-13 18:47:00,51.6,24.1,30.11,WSW,257,3.0,10.0,34,0.00,,,0.00,352.0,meteohub,2013-05-13 22:47:00,
2013-05-13 18:52:00,51.6,24.1,30.11,WSW,252,5.0,6.0,34,0.00,,,0.00,330.0,meteohub,2013-05-13 22:52:00,
2013-05-13 18:57:00,51.6,24.8,30.11,WSW,252,0.0,7.0,35,0.00,,,0.00,318.0,meteohub,2013-05-13 22:57:00,
2013-05-13 19:02:00,51.8,25.0,30.11,WSW,246,0.0,7.0,35,0.00,,,0.00,297.0,meteohub,2013-05-13 23:02:00,
2013-05-13 19:07:00,51.6,24.1,30.11,West,267,0.0,7.0,34,0.00,,,0.00,281.0,meteohub,2013-05-13 23:07:00,
2013-05-13 19:12:00,51.4,24.6,30.10,West,259,0.0,8.0,35,0.00,,,0.00,267.0,meteohub,2013-05-13 23:12:00,
2013-05-13 19:17:00,51.3,24.6,30.11,West,260,0.0,8.0,35,0.00,,,0.00,251.0,meteohub,2013-05-13 23:17:00,
2013-05-13 19:22:00,51.1,24.4,30.10,West,261,0.0,4.0,35,0.00,,,0.00,220.0,meteohub,2013-05-13 23:22:00,
2013-05-13 19:27:00,50.9,24.3,30.11,West,263,0.0,4.0,35,0.00,,,0.00,199.0,meteohub,2013-05-13 23:27:00,
2013-05-13 19:32:00,50.7,24.1,30.11,West,267,0.0,6.0,35,0.00,,,0.00,171.0,meteohub,2013-05-13 23:32:00,
2013-05-13 19:37:00,50.5,25.2,30.11,West,266,0.0,6.0,37,0.00,,,0.00,134.0,meteohub,2013-05-13 23:37:00,
2013-05-13 19:42:00,50.5,25.2,30.11,West,261,0.0,6.0,37,0.00,,,0.00,58.0,meteohub,2013-05-13 23:42:00,
2013-05-13 19:47:00,50.4,25.0,30.11,West,261,0.0,6.0,37,0.00,,,0.00,33.0,meteohub,2013-05-13 23:47:00,
2013-05-13 19:52:00,50.2,25.5,30.11,West,261,0.0,4.0,38,0.00,,,0.00,33.0,meteohub,2013-05-13 23:52:00,
2013-05-13 19:57:00,49.8,25.2,30.11,West,261,0.0,4.0,38,0.00,,,0.00,39.0,meteohub,2013-05-13 23:57:00,
2013-05-13 20:02:00,49.5,25.0,30.10,West,261,0.0,4.0,38,0.00,,,0.00,40.0,meteohub,2013-05-14 00:02:00,
2013-05-13 20:07:00,49.3,26.1,30.11,West,261,0.0,4.0,40,0.00,,,0.00,47.0,meteohub,2013-05-14 00:07:00,
2013-05-13 20:12:00,48.9,25.7,30.10,West,261,0.0,1.0,40,0.00,,,0.00,40.0,meteohub,2013-05-14 00:12:00,
2013-05-13 20:17:00,48.9,25.7,30.10,West,261,0.0,1.0,40,0.00,,,0.00,33.0,meteohub,2013-05-14 00:17:00,
2013-05-13 20:22:00,48.7,26.1,30.10,West,261,0.0,0.0,41,0.00,,,0.00,23.0,meteohub,2013-05-14 00:22:00,
2013-05-13 20:27:00,48.7,26.6,30.10,West,261,0.0,0.0,42,0.00,,,0.00,19.0,meteohub,2013-05-14 00:27:00,
2013-05-13 20:32:00,48.6,26.4,30.10,West,261,0.0,0.0,42,0.00,,,0.00,14.0,meteohub,2013-05-14 00:32:00,
2013-05-13 20:37:00,48.4,26.4,30.10,West,261,0.0,0.0,42,0.00,,,0.00,11.0,meteohub,2013-05-14 00:37:00,
2013-05-13 20:42:00,48.4,26.4,30.10,West,261,0.0,0.0,42,0.00,,,0.00,9.0,meteohub,2013-05-14 00:42:00,
2013-05-13 20:47:00,48.0,25.5,30.09,West,261,0.0,0.0,41,0.00,,,0.00,5.0,meteohub,2013-05-14 00:47:00,
2013-05-13 20:52:00,47.8,25.9,30.09,West,261,0.0,0.0,42,0.00,,,0.00,0.0,meteohub,2013-05-14 00:52:00,
2013-05-13 20:57:00,47.7,26.8,30.09,West,261,0.0,0.0,44,0.00,,,0.00,0.0,meteohub,2013-05-14 00:57:00,
2013-05-13 21:02:00,47.5,27.1,30.09,West,261,0.0,0.0,45,0.00,,,0.00,0.0,meteohub,2013-05-14 01:02:00,
2013-05-13 21:07:00,47.1,26.8,30.09,West,262,0.0,0.0,45,0.00,,,0.00,0.0,meteohub,2013-05-14 01:07:00,
2013-05-13 21:12:00,46.9,27.7,30.09,West,261,0.0,0.0,47,0.00,,,0.00,0.0,meteohub,2013-05-14 01:12:00,
2013-05-13 21:17:00,46.8,29.1,30.09,West,261,0.0,0.0,50,0.00,,,0.00,0.0,meteohub,2013-05-14 01:17:00,
2013-05-13 21:22:00,46.6,30.7,30.09,West,261,0.0,0.0,54,0.00,,,0.00,0.0,meteohub,2013-05-14 01:22:00,
2013-05-13 21:27:00,46.0,28.9,30.09,West,261,0.0,0.0,51,0.00,,,0.00,0.0,meteohub,2013-05-14 01:27:00,
2013-05-13 21:33:00,45.7,27.7,30.09,West,261,0.0,0.0,49,0.00,,,0.00,0.0,meteohub,2013-05-14 01:33:00,
2013-05-13 21:38:00,45.3,28.2,30.09,West,261,0.0,0.0,51,0.00,,,0.00,0.0,meteohub,2013-05-14 01:38:00,
2013-05-13 21:43:00,45.1,28.0,30.09,West,261,0.0,0.0,51,0.00,,,0.00,0.0,meteohub,2013-05-14 01:43:00,
2013-05-13 21:48:00,45.0,28.4,30.09,West,261,0.0,0.0,52,0.00,,,0.00,0.0,meteohub,2013-05-14 01:48:00,
2013-05-13 21:53:00,45.0,28.4,30.09,West,261,0.0,0.0,52,0.00,,,0.00,0.0,meteohub,2013-05-14 01:53:00,
2013-05-13 21:58:00,44.8,28.2,30.09,West,261,0.0,0.0,52,0.00,,,0.00,0.0,meteohub,2013-05-14 01:58:00,
2013-05-13 22:03:00,44.8,28.8,30.09,West,262,0.0,0.0,53,0.00,,,0.00,0.0,meteohub,2013-05-14 02:03:00,
2013-05-13 22:08:00,44.6,28.6,30.08,West,261,0.0,0.0,53,0.00,,,0.00,0.0,meteohub,2013-05-14 02:08:00,
2013-05-13 22:13:00,44.4,28.8,30.08,West,261,0.0,0.0,54,0.00,,,0.00,0.0,meteohub,2013-05-14 02:13:00,
2013-05-13 22:18:00,44.2,28.2,30.08,West,262,0.0,0.0,53,0.00,,,0.00,0.0,meteohub,2013-05-14 02:18:00,
2013-05-13 22:23:00,44.2,28.6,30.08,West,261,0.0,0.0,54,0.00,,,0.00,0.0,meteohub,2013-05-14 02:23:00,
2013-05-13 22:28:00,44.1,28.9,30.08,West,262,0.0,0.0,55,0.00,,,0.00,0.0,meteohub,2013-05-14 02:28:00,
2013-05-13 22:33:00,44.1,30.7,30.09,West,262,0.0,0.0,59,0.00,,,0.00,0.0,meteohub,2013-05-14 02:33:00,
2013-05-13 22:38:00,43.9,30.9,30.09,West,261,0.0,0.0,60,0.00,,,0.00,0.0,meteohub,2013-05-14 02:38:00,
2013-05-13 22:43:00,43.7,30.7,30.09,West,261,0.0,0.0,60,0.00,,,0.00,0.0,meteohub,2013-05-14 02:43:00,
2013-05-13 22:48:00,43.5,30.6,30.08,West,261,0.0,0.0,60,0.00,,,0.00,0.0,meteohub,2013-05-14 02:48:00,
2013-05-13 22:53:00,43.5,30.6,30.08,West,261,0.0,0.0,60,0.00,,,0.00,0.0,meteohub,2013-05-14 02:53:00,
2013-05-13 22:58:00,43.3,30.4,30.08,West,261,0.0,0.0,60,0.00,,,0.00,0.0,meteohub,2013-05-14 02:58:00,
2013-05-13 23:03:00,43.3,30.4,30.08,West,261,0.0,0.0,60,0.00,,,0.00,0.0,meteohub,2013-05-14 03:03:00,
2013-05-13 23:08:00,43.2,29.8,30.08,West,261,0.0,0.0,59,0.00,,,0.00,0.0,meteohub,2013-05-14 03:08:00,
2013-05-13 23:13:00,43.0,27.5,30.07,West,261,0.0,0.0,54,0.00,,,0.00,0.0,meteohub,2013-05-14 03:13:00,
2013-05-13 23:18:00,43.0,27.0,30.07,West,261,0.0,0.0,53,0.00,,,0.00,0.0,meteohub,2013-05-14 03:18:00,
2013-05-13 23:23:00,43.0,27.0,30.07,West,261,0.0,0.0,53,0.00,,,0.00,0.0,meteohub,2013-05-14 03:23:00,
2013-05-13 23:28:00,43.2,28.0,30.07,West,261,0.0,0.0,55,0.00,,,0.00,0.0,meteohub,2013-05-14 03:28:00,
2013-05-13 23:33:00,43.2,28.6,30.06,West,261,0.0,0.0,56,0.00,,,0.00,0.0,meteohub,2013-05-14 03:33:00,
2013-05-13 23:38:00,43.3,28.2,30.07,West,261,0.0,0.0,55,0.00,,,0.00,0.0,meteohub,2013-05-14 03:38:00,
2013-05-13 23:43:00,43.5,29.7,30.06,West,261,0.0,0.0,58,0.00,,,0.00,0.0,meteohub,2013-05-14 03:43:00,
2013-05-13 23:48:00,43.7,29.1,30.05,West,261,0.0,0.0,56,0.00,,,0.00,0.0,meteohub,2013-05-14 03:48:00,
2013-05-13 23:53:00,43.7,28.2,30.06,West,261,0.0,0.0,54,0.00,,,0.00,0.0,meteohub,2013-05-14 03:53:00,
2013-05-13 23:58:00,43.9,27.9,30.06,West,261,0.0,0.0,53,0.00,,,0.00,0.0,meteohub,2013-05-14 03:58:00,